Terminal Aerodrome Forecast
Issued by NWS Caribou, ME

Home | Current Version | Previous Version | Text Only | Print | Product List | Glossary On
Versions: 1 2 3 4 5 6 7 8 9 10 11 12 13 14 15 16 17 18 19 20 21 22 23
345
FTUS41 KCAR 191839 CCA
TAFBGR
TAF COR
KBGR 191839Z 2000/2024 24004KT P6SM VCSH SCT020 BKN035
     FM192100 23004KT P6SM SCT045 BKN100
     FM200700 20005KT 5SM -SN OVC040
     FM201200 21008KT P6SM VCSH OVC045=

USA.gov is the U.S. government's official web portal to all federal, state and local government web resources and services.